PMV weather

Del Caribe Santiago MariƱo International Airport
Isla Margarita, Nueva Esparta, Venezuela

Public forecast

Using degrees Celsius for public forecast. Weather courtesy of forecast.io.

METAR (pilot weather report)

Retrieved 2019/06/25 21:00 UTC (5 minutes ago):

SVMG 252100Z /////KT 9999 FEW010 30/24 Q1013 NOSIG

TAF (pilot weather forecast)

Forecast is more than 12 hours old.

Retrieved 2019/06/24 18:06 UTC (1 day ago):

TAF SVMG 241600Z 2418/2518 08011KT 9999 FEW010 TX33/19Z TN25/07Z BECMG 2418/2423 09015KT FEW010 SCT080